sensor_id;sensor_type;location;lat;lon;timestamp;P1;durP1;ratioP1;P2;durP2;ratioP2
25023;SDS011;13033;50.936;5.334;2022-08-06T00:02:04;8.80;;;2.35;;
25023;SDS011;13033;50.936;5.334;2022-08-06T00:04:30;6.38;;;2.08;;
25023;SDS011;13033;50.936;5.334;2022-08-06T00:06:56;8.88;;;2.08;;
25023;SDS011;13033;50.936;5.334;2022-08-06T00:09:22;8.65;;;2.05;;
25023;SDS011;13033;50.936;5.334;2022-08-06T00:11:47;6.97;;;2.20;;
25023;SDS011;13033;50.936;5.334;2022-08-06T00:14:13;7.53;;;2.20;;
25023;SDS011;13033;50.936;5.334;2022-08-06T00:16:39;9.90;;;2.45;;
25023;SDS011;13033;50.936;5.334;2022-08-06T00:19:05;5.68;;;2.00;;
25023;SDS011;13033;50.936;5.334;2022-08-06T00:21:30;4.85;;;1.90;;
25023;SDS011;13033;50.936;5.334;2022-08-06T00:23:56;7.70;;;2.30;;
25023;SDS011;13033;50.936;5.334;2022-08-06T00:26:22;8.02;;;2.40;;
25023;SDS011;13033;50.936;5.334;2022-08-06T00:28:49;5.97;;;2.00;;
25023;SDS011;13033;50.936;5.334;2022-08-06T00:31:15;6.88;;;1.90;;
25023;SDS011;13033;50.936;5.334;2022-08-06T00:33:41;9.23;;;2.20;;
25023;SDS011;13033;50.936;5.334;2022-08-06T00:36:06;6.63;;;2.00;;
25023;SDS011;13033;50.936;5.334;2022-08-06T00:38:32;8.15;;;2.13;;
25023;SDS011;13033;50.936;5.334;2022-08-06T00:40:59;13.30;;;2.38;;
25023;SDS011;13033;50.936;5.334;2022-08-06T00:43:25;6.10;;;2.28;;
25023;SDS011;13033;50.936;5.334;2022-08-06T00:45:51;8.68;;;2.08;;
25023;SDS011;13033;50.936;5.334;2022-08-06T00:48:17;6.18;;;2.00;;
25023;SDS011;13033;50.936;5.334;2022-08-06T00:50:43;6.88;;;2.22;;
25023;SDS011;13033;50.936;5.334;2022-08-06T00:53:08;8.43;;;1.85;;
25023;SDS011;13033;50.936;5.334;2022-08-06T00:55:34;7.60;;;2.40;;
25023;SDS011;13033;50.936;5.334;2022-08-06T00:57:59;5.65;;;2.03;;
25023;SDS011;13033;50.936;5.334;2022-08-06T01:00:25;6.03;;;2.22;;
25023;SDS011;13033;50.936;5.334;2022-08-06T01:02:51;10.68;;;2.25;;
25023;SDS011;13033;50.936;5.334;2022-08-06T01:05:17;8.90;;;2.20;;
25023;SDS011;13033;50.936;5.334;2022-08-06T01:07:42;7.40;;;2.13;;
25023;SDS011;13033;50.936;5.334;2022-08-06T01:10:08;7.10;;;2.17;;
25023;SDS011;13033;50.936;5.334;2022-08-06T01:12:34;8.25;;;2.40;;
25023;SDS011;13033;50.936;5.334;2022-08-06T01:15:00;9.90;;;2.20;;
25023;SDS011;13033;50.936;5.334;2022-08-06T01:17:31;7.60;;;2.53;;
25023;SDS011;13033;50.936;5.334;2022-08-06T01:20:06;7.10;;;2.35;;
25023;SDS011;13033;50.936;5.334;2022-08-06T01:25:23;4.38;;;2.10;;
25023;SDS011;13033;50.936;5.334;2022-08-06T01:28:02;9.30;;;2.42;;
25023;SDS011;13033;50.936;5.334;2022-08-06T01:30:37;8.68;;;2.50;;
25023;SDS011;13033;50.936;5.334;2022-08-06T01:33:15;7.47;;;2.75;;
25023;SDS011;13033;50.936;5.334;2022-08-06T01:35:49;6.00;;;2.25;;
25023;SDS011;13033;50.936;5.334;2022-08-06T01:38:21;4.90;;;2.30;;
25023;SDS011;13033;50.936;5.334;2022-08-06T01:40:54;6.15;;;2.53;;
25023;SDS011;13033;50.936;5.334;2022-08-06T01:43:23;7.20;;;2.42;;
25023;SDS011;13033;50.936;5.334;2022-08-06T01:45:51;6.72;;;2.50;;
25023;SDS011;13033;50.936;5.334;2022-08-06T01:48:19;5.20;;;2.50;;
25023;SDS011;13033;50.936;5.334;2022-08-06T01:50:48;7.43;;;2.20;;
25023;SDS011;13033;50.936;5.334;2022-08-06T01:53:18;8.90;;;2.78;;
25023;SDS011;13033;50.936;5.334;2022-08-06T01:55:49;6.53;;;2.90;;
25023;SDS011;13033;50.936;5.334;2022-08-06T01:58:21;8.98;;;2.85;;
25023;SDS011;13033;50.936;5.334;2022-08-06T02:00:49;7.57;;;2.65;;
25023;SDS011;13033;50.936;5.334;2022-08-06T02:03:25;6.93;;;2.65;;
25023;SDS011;13033;50.936;5.334;2022-08-06T02:05:56;7.05;;;3.00;;
25023;SDS011;13033;50.936;5.334;2022-08-06T02:08:26;11.60;;;3.70;;
25023;SDS011;13033;50.936;5.334;2022-08-06T02:10:55;6.50;;;3.10;;
25023;SDS011;13033;50.936;5.334;2022-08-06T02:13:23;10.75;;;3.10;;
25023;SDS011;13033;50.936;5.334;2022-08-06T02:15:51;10.13;;;3.20;;
25023;SDS011;13033;50.936;5.334;2022-08-06T02:18:19;4.85;;;3.00;;
25023;SDS011;13033;50.936;5.334;2022-08-06T02:20:48;8.80;;;2.83;;
25023;SDS011;13033;50.936;5.334;2022-08-06T02:23:19;11.35;;;3.40;;
25023;SDS011;13033;50.936;5.334;2022-08-06T02:25:47;7.35;;;3.20;;
25023;SDS011;13033;50.936;5.334;2022-08-06T02:28:16;9.48;;;3.47;;
25023;SDS011;13033;50.936;5.334;2022-08-06T02:30:45;6.30;;;2.85;;
25023;SDS011;13033;50.936;5.334;2022-08-06T02:33:12;7.32;;;3.40;;
25023;SDS011;13033;50.936;5.334;2022-08-06T02:35:49;7.10;;;3.83;;
25023;SDS011;13033;50.936;5.334;2022-08-06T02:41:21;10.75;;;3.67;;
25023;SDS011;13033;50.936;5.334;2022-08-06T02:44:00;7.65;;;3.70;;
25023;SDS011;13033;50.936;5.334;2022-08-06T02:46:32;7.75;;;3.38;;
25023;SDS011;13033;50.936;5.334;2022-08-06T02:49:04;7.03;;;3.15;;
25023;SDS011;13033;50.936;5.334;2022-08-06T02:51:45;10.68;;;3.80;;
25023;SDS011;13033;50.936;5.334;2022-08-06T02:54:22;11.50;;;4.03;;
25023;SDS011;13033;50.936;5.334;2022-08-06T02:56:55;11.65;;;3.38;;
25023;SDS011;13033;50.936;5.334;2022-08-06T02:59:26;10.98;;;3.83;;
25023;SDS011;13033;50.936;5.334;2022-08-06T03:01:56;8.07;;;3.67;;
25023;SDS011;13033;50.936;5.334;2022-08-06T03:04:25;11.60;;;4.20;;
25023;SDS011;13033;50.936;5.334;2022-08-06T03:06:53;13.27;;;3.70;;
25023;SDS011;13033;50.936;5.334;2022-08-06T03:09:20;9.80;;;3.75;;
25023;SDS011;13033;50.936;5.334;2022-08-06T03:11:47;9.23;;;3.65;;
25023;SDS011;13033;50.936;5.334;2022-08-06T03:14:15;10.60;;;3.60;;
25023;SDS011;13033;50.936;5.334;2022-08-06T03:16:42;9.50;;;3.72;;
25023;SDS011;13033;50.936;5.334;2022-08-06T03:19:10;7.78;;;3.50;;
25023;SDS011;13033;50.936;5.334;2022-08-06T03:21:37;9.88;;;4.05;;
25023;SDS011;13033;50.936;5.334;2022-08-06T03:24:05;8.95;;;3.67;;
25023;SDS011;13033;50.936;5.334;2022-08-06T03:26:32;7.57;;;3.55;;
25023;SDS011;13033;50.936;5.334;2022-08-06T03:29:01;7.13;;;3.67;;
25023;SDS011;13033;50.936;5.334;2022-08-06T03:31:27;7.57;;;3.55;;
25023;SDS011;13033;50.936;5.334;2022-08-06T03:33:55;11.05;;;3.95;;
25023;SDS011;13033;50.936;5.334;2022-08-06T03:36:22;9.40;;;4.13;;
25023;SDS011;13033;50.936;5.334;2022-08-06T03:38:50;9.13;;;4.10;;
25023;SDS011;13033;50.936;5.334;2022-08-06T03:41:21;7.15;;;3.53;;
25023;SDS011;13033;50.936;5.334;2022-08-06T03:43:49;11.45;;;3.75;;
25023;SDS011;13033;50.936;5.334;2022-08-06T03:46:16;8.27;;;3.90;;
25023;SDS011;13033;50.936;5.334;2022-08-06T03:48:46;10.93;;;3.90;;
25023;SDS011;13033;50.936;5.334;2022-08-06T03:51:14;9.68;;;3.75;;
25023;SDS011;13033;50.936;5.334;2022-08-06T03:53:42;8.82;;;4.18;;
25023;SDS011;13033;50.936;5.334;2022-08-06T03:56:11;8.50;;;3.50;;
25023;SDS011;13033;50.936;5.334;2022-08-06T03:58:41;10.27;;;3.85;;
25023;SDS011;13033;50.936;5.334;2022-08-06T04:01:09;11.02;;;4.15;;
25023;SDS011;13033;50.936;5.334;2022-08-06T04:03:37;8.15;;;3.47;;
25023;SDS011;13033;50.936;5.334;2022-08-06T04:06:04;6.60;;;3.40;;
25023;SDS011;13033;50.936;5.334;2022-08-06T04:08:34;6.70;;;3.55;;
25023;SDS011;13033;50.936;5.334;2022-08-06T04:11:01;14.77;;;3.83;;
25023;SDS011;13033;50.936;5.334;2022-08-06T04:13:27;13.82;;;4.10;;
25023;SDS011;13033;50.936;5.334;2022-08-06T04:15:54;10.45;;;4.10;;
25023;SDS011;13033;50.936;5.334;2022-08-06T04:18:22;9.55;;;3.80;;
25023;SDS011;13033;50.936;5.334;2022-08-06T04:20:52;7.60;;;4.03;;
25023;SDS011;13033;50.936;5.334;2022-08-06T04:23:20;9.10;;;4.05;;
25023;SDS011;13033;50.936;5.334;2022-08-06T04:25:50;11.05;;;4.20;;
25023;SDS011;13033;50.936;5.334;2022-08-06T04:28:18;8.32;;;3.90;;
25023;SDS011;13033;50.936;5.334;2022-08-06T04:30:45;8.55;;;3.78;;
25023;SDS011;13033;50.936;5.334;2022-08-06T04:33:13;6.40;;;3.85;;
25023;SDS011;13033;50.936;5.334;2022-08-06T04:35:41;14.88;;;4.30;;
25023;SDS011;13033;50.936;5.334;2022-08-06T04:38:07;7.03;;;3.78;;
25023;SDS011;13033;50.936;5.334;2022-08-06T04:40:35;10.48;;;3.88;;
25023;SDS011;13033;50.936;5.334;2022-08-06T04:43:06;6.85;;;3.65;;
25023;SDS011;13033;50.936;5.334;2022-08-06T04:45:39;9.45;;;4.10;;
25023;SDS011;13033;50.936;5.334;2022-08-06T04:48:08;8.35;;;4.40;;
25023;SDS011;13033;50.936;5.334;2022-08-06T04:50:35;7.07;;;4.03;;
25023;SDS011;13033;50.936;5.334;2022-08-06T04:53:05;13.20;;;4.40;;
25023;SDS011;13033;50.936;5.334;2022-08-06T04:55:39;7.80;;;4.00;;
25023;SDS011;13033;50.936;5.334;2022-08-06T04:58:06;8.95;;;4.40;;
25023;SDS011;13033;50.936;5.334;2022-08-06T05:00:34;8.73;;;4.65;;
25023;SDS011;13033;50.936;5.334;2022-08-06T05:03:02;10.05;;;3.83;;
25023;SDS011;13033;50.936;5.334;2022-08-06T05:05:28;9.88;;;4.75;;
25023;SDS011;13033;50.936;5.334;2022-08-06T05:07:56;10.63;;;4.20;;
25023;SDS011;13033;50.936;5.334;2022-08-06T05:10:25;6.75;;;3.97;;
25023;SDS011;13033;50.936;5.334;2022-08-06T05:17:56;8.35;;;4.47;;
25023;SDS011;13033;50.936;5.334;2022-08-06T05:20:40;12.65;;;4.80;;
25023;SDS011;13033;50.936;5.334;2022-08-06T05:23:13;9.20;;;4.72;;
25023;SDS011;13033;50.936;5.334;2022-08-06T05:25:43;10.52;;;4.10;;
25023;SDS011;13033;50.936;5.334;2022-08-06T05:28:09;10.13;;;4.40;;
25023;SDS011;13033;50.936;5.334;2022-08-06T05:30:41;8.27;;;4.63;;
25023;SDS011;13033;50.936;5.334;2022-08-06T05:33:08;10.27;;;4.13;;
25023;SDS011;13033;50.936;5.334;2022-08-06T05:35:34;9.98;;;4.47;;
25023;SDS011;13033;50.936;5.334;2022-08-06T05:38:00;14.75;;;4.63;;
25023;SDS011;13033;50.936;5.334;2022-08-06T05:40:26;9.18;;;4.38;;
25023;SDS011;13033;50.936;5.334;2022-08-06T05:42:58;11.38;;;4.68;;
25023;SDS011;13033;50.936;5.334;2022-08-06T05:45:25;10.73;;;4.70;;
25023;SDS011;13033;50.936;5.334;2022-08-06T05:47:51;18.58;;;5.65;;
25023;SDS011;13033;50.936;5.334;2022-08-06T05:50:20;9.50;;;4.57;;
25023;SDS011;13033;50.936;5.334;2022-08-06T05:53:00;9.63;;;4.68;;
25023;SDS011;13033;50.936;5.334;2022-08-06T05:55:38;8.18;;;4.50;;
25023;SDS011;13033;50.936;5.334;2022-08-06T05:58:16;8.85;;;4.40;;
25023;SDS011;13033;50.936;5.334;2022-08-06T06:00:48;8.90;;;4.53;;
25023;SDS011;13033;50.936;5.334;2022-08-06T06:03:16;11.10;;;3.90;;
25023;SDS011;13033;50.936;5.334;2022-08-06T06:05:44;15.35;;;4.05;;
25023;SDS011;13033;50.936;5.334;2022-08-06T06:08:10;11.20;;;4.00;;
25023;SDS011;13033;50.936;5.334;2022-08-06T06:10:37;9.07;;;3.90;;
25023;SDS011;13033;50.936;5.334;2022-08-06T06:13:04;12.57;;;4.10;;
25023;SDS011;13033;50.936;5.334;2022-08-06T06:15:32;10.38;;;4.30;;
25023;SDS011;13033;50.936;5.334;2022-08-06T06:21:10;9.35;;;4.13;;
25023;SDS011;13033;50.936;5.334;2022-08-06T06:24:05;10.45;;;4.40;;
25023;SDS011;13033;50.936;5.334;2022-08-06T06:26:54;8.48;;;4.15;;
25023;SDS011;13033;50.936;5.334;2022-08-06T06:31:59;8.30;;;3.65;;
25023;SDS011;13033;50.936;5.334;2022-08-06T06:34:50;11.63;;;4.30;;
25023;SDS011;13033;50.936;5.334;2022-08-06T06:45:36;8.20;;;3.50;;
25023;SDS011;13033;50.936;5.334;2022-08-06T06:50:41;6.90;;;3.38;;
25023;SDS011;13033;50.936;5.334;2022-08-06T06:53:10;9.70;;;3.28;;
25023;SDS011;13033;50.936;5.334;2022-08-06T06:55:38;10.43;;;3.45;;
25023;SDS011;13033;50.936;5.334;2022-08-06T06:58:12;6.90;;;3.13;;
25023;SDS011;13033;50.936;5.334;2022-08-06T07:00:43;8.50;;;3.13;;
25023;SDS011;13033;50.936;5.334;2022-08-06T07:03:09;7.97;;;2.65;;
25023;SDS011;13033;50.936;5.334;2022-08-06T07:05:36;7.70;;;2.63;;
25023;SDS011;13033;50.936;5.334;2022-08-06T07:08:05;9.02;;;2.80;;
25023;SDS011;13033;50.936;5.334;2022-08-06T07:10:33;8.20;;;2.72;;
25023;SDS011;13033;50.936;5.334;2022-08-06T07:12:59;11.23;;;2.85;;
25023;SDS011;13033;50.936;5.334;2022-08-06T07:15:26;8.57;;;2.38;;
25023;SDS011;13033;50.936;5.334;2022-08-06T07:17:54;6.38;;;2.58;;
25023;SDS011;13033;50.936;5.334;2022-08-06T07:20:22;7.15;;;2.55;;
25023;SDS011;13033;50.936;5.334;2022-08-06T07:22:51;8.48;;;2.30;;
25023;SDS011;13033;50.936;5.334;2022-08-06T07:25:19;7.57;;;1.95;;
25023;SDS011;13033;50.936;5.334;2022-08-06T07:27:48;8.02;;;1.75;;
25023;SDS011;13033;50.936;5.334;2022-08-06T07:30:16;6.13;;;2.00;;
25023;SDS011;13033;50.936;5.334;2022-08-06T07:32:44;6.93;;;1.83;;
25023;SDS011;13033;50.936;5.334;2022-08-06T07:35:11;10.95;;;2.10;;
25023;SDS011;13033;50.936;5.334;2022-08-06T07:37:40;3.05;;;1.02;;
25023;SDS011;13033;50.936;5.334;2022-08-06T07:40:10;4.55;;;1.77;;
25023;SDS011;13033;50.936;5.334;2022-08-06T07:42:43;10.07;;;1.75;;
25023;SDS011;13033;50.936;5.334;2022-08-06T07:45:12;5.65;;;1.85;;
25023;SDS011;13033;50.936;5.334;2022-08-06T07:47:39;7.18;;;1.75;;
25023;SDS011;13033;50.936;5.334;2022-08-06T07:50:09;10.80;;;1.50;;
25023;SDS011;13033;50.936;5.334;2022-08-06T07:52:38;5.88;;;1.50;;
25023;SDS011;13033;50.936;5.334;2022-08-06T07:55:06;4.65;;;1.17;;
25023;SDS011;13033;50.936;5.334;2022-08-06T07:57:35;5.63;;;1.10;;
25023;SDS011;13033;50.936;5.334;2022-08-06T08:00:02;6.88;;;1.52;;
25023;SDS011;13033;50.936;5.334;2022-08-06T08:02:29;6.90;;;1.48;;
25023;SDS011;13033;50.936;5.334;2022-08-06T08:04:55;3.78;;;1.23;;
25023;SDS011;13033;50.936;5.334;2022-08-06T08:07:40;7.72;;;1.20;;
25023;SDS011;13033;50.936;5.334;2022-08-06T08:10:06;3.92;;;1.20;;
25023;SDS011;13033;50.936;5.334;2022-08-06T08:12:32;2.97;;;1.10;;
25023;SDS011;13033;50.936;5.334;2022-08-06T08:15:01;5.55;;;1.50;;
25023;SDS011;13033;50.936;5.334;2022-08-06T08:17:28;7.53;;;1.58;;
25023;SDS011;13033;50.936;5.334;2022-08-06T08:19:54;6.35;;;1.30;;
25023;SDS011;13033;50.936;5.334;2022-08-06T08:22:20;6.65;;;1.60;;
25023;SDS011;13033;50.936;5.334;2022-08-06T08:24:46;4.97;;;1.15;;
25023;SDS011;13033;50.936;5.334;2022-08-06T08:27:13;3.58;;;0.93;;
25023;SDS011;13033;50.936;5.334;2022-08-06T08:29:40;5.78;;;1.00;;
25023;SDS011;13033;50.936;5.334;2022-08-06T08:32:07;7.47;;;1.42;;
25023;SDS011;13033;50.936;5.334;2022-08-06T08:34:34;3.25;;;1.00;;
25023;SDS011;13033;50.936;5.334;2022-08-06T08:37:03;3.70;;;1.17;;
25023;SDS011;13033;50.936;5.334;2022-08-06T08:39:29;6.13;;;1.02;;
25023;SDS011;13033;50.936;5.334;2022-08-06T08:41:58;3.65;;;0.98;;
25023;SDS011;13033;50.936;5.334;2022-08-06T08:44:39;3.72;;;0.85;;
25023;SDS011;13033;50.936;5.334;2022-08-06T08:47:06;2.97;;;0.73;;
25023;SDS011;13033;50.936;5.334;2022-08-06T08:49:35;6.13;;;1.05;;
25023;SDS011;13033;50.936;5.334;2022-08-06T08:52:03;5.30;;;0.70;;
25023;SDS011;13033;50.936;5.334;2022-08-06T08:54:31;4.13;;;0.77;;
25023;SDS011;13033;50.936;5.334;2022-08-06T08:56:59;4.30;;;0.90;;
25023;SDS011;13033;50.936;5.334;2022-08-06T08:59:27;4.72;;;0.95;;
25023;SDS011;13033;50.936;5.334;2022-08-06T09:01:57;3.15;;;0.60;;
25023;SDS011;13033;50.936;5.334;2022-08-06T09:04:24;4.38;;;0.57;;
25023;SDS011;13033;50.936;5.334;2022-08-06T09:06:51;4.07;;;0.60;;
25023;SDS011;13033;50.936;5.334;2022-08-06T09:09:19;4.15;;;1.10;;
25023;SDS011;13033;50.936;5.334;2022-08-06T09:11:45;3.15;;;0.80;;
25023;SDS011;13033;50.936;5.334;2022-08-06T09:14:12;7.35;;;0.90;;
25023;SDS011;13033;50.936;5.334;2022-08-06T09:16:37;2.25;;;0.52;;
25023;SDS011;13033;50.936;5.334;2022-08-06T09:19:04;2.53;;;0.80;;
25023;SDS011;13033;50.936;5.334;2022-08-06T09:21:31;3.97;;;0.98;;
25023;SDS011;13033;50.936;5.334;2022-08-06T09:23:57;3.92;;;0.80;;
25023;SDS011;13033;50.936;5.334;2022-08-06T09:26:23;3.00;;;1.00;;
25023;SDS011;13033;50.936;5.334;2022-08-06T09:28:49;1.02;;;0.50;;
25023;SDS011;13033;50.936;5.334;2022-08-06T09:31:19;2.90;;;0.80;;
25023;SDS011;13033;50.936;5.334;2022-08-06T09:33:58;3.75;;;1.00;;
25023;SDS011;13033;50.936;5.334;2022-08-06T09:36:25;2.90;;;0.80;;
25023;SDS011;13033;50.936;5.334;2022-08-06T09:38:58;2.38;;;0.70;;
25023;SDS011;13033;50.936;5.334;2022-08-06T09:41:25;2.25;;;0.60;;
25023;SDS011;13033;50.936;5.334;2022-08-06T09:43:54;3.45;;;0.80;;
25023;SDS011;13033;50.936;5.334;2022-08-06T09:51:50;2.75;;;0.50;;
25023;SDS011;13033;50.936;5.334;2022-08-06T09:54:37;2.67;;;0.75;;
25023;SDS011;13033;50.936;5.334;2022-08-06T09:57:02;2.47;;;0.70;;
25023;SDS011;13033;50.936;5.334;2022-08-06T09:59:28;1.13;;;0.60;;
25023;SDS011;13033;50.936;5.334;2022-08-06T10:01:54;3.35;;;0.63;;
25023;SDS011;13033;50.936;5.334;2022-08-06T10:04:24;2.30;;;0.73;;
25023;SDS011;13033;50.936;5.334;2022-08-06T10:06:55;3.60;;;0.73;;
25023;SDS011;13033;50.936;5.334;2022-08-06T10:09:22;1.73;;;0.73;;
25023;SDS011;13033;50.936;5.334;2022-08-06T10:11:49;1.10;;;0.50;;
25023;SDS011;13033;50.936;5.334;2022-08-06T10:14:23;1.65;;;0.65;;
25023;SDS011;13033;50.936;5.334;2022-08-06T10:17:09;1.70;;;0.50;;
25023;SDS011;13033;50.936;5.334;2022-08-06T10:19:39;2.00;;;0.52;;
25023;SDS011;13033;50.936;5.334;2022-08-06T10:22:17;1.45;;;0.40;;
25023;SDS011;13033;50.936;5.334;2022-08-06T10:24:48;2.22;;;0.50;;
25023;SDS011;13033;50.936;5.334;2022-08-06T10:27:22;1.03;;;0.60;;
25023;SDS011;13033;50.936;5.334;2022-08-06T10:29:53;1.20;;;0.50;;
25023;SDS011;13033;50.936;5.334;2022-08-06T10:32:25;3.28;;;0.73;;
25023;SDS011;13033;50.936;5.334;2022-08-06T10:34:57;0.70;;;0.50;;
25023;SDS011;13033;50.936;5.334;2022-08-06T10:37:27;1.27;;;0.50;;
25023;SDS011;13033;50.936;5.334;2022-08-06T10:39:55;0.90;;;0.40;;
25023;SDS011;13033;50.936;5.334;2022-08-06T10:42:23;0.73;;;0.40;;
25023;SDS011;13033;50.936;5.334;2022-08-06T10:44:50;2.38;;;0.57;;
25023;SDS011;13033;50.936;5.334;2022-08-06T10:47:16;2.85;;;0.68;;
25023;SDS011;13033;50.936;5.334;2022-08-06T10:49:43;1.30;;;0.47;;
25023;SDS011;13033;50.936;5.334;2022-08-06T10:52:10;1.27;;;0.50;;
25023;SDS011;13033;50.936;5.334;2022-08-06T10:54:37;2.30;;;0.73;;
25023;SDS011;13033;50.936;5.334;2022-08-06T10:57:08;2.38;;;0.60;;
25023;SDS011;13033;50.936;5.334;2022-08-06T10:59:37;4.05;;;0.52;;
25023;SDS011;13033;50.936;5.334;2022-08-06T11:05:16;2.35;;;0.70;;
25023;SDS011;13033;50.936;5.334;2022-08-06T11:13:51;1.95;;;0.52;;
25023;SDS011;13033;50.936;5.334;2022-08-06T11:16:27;3.42;;;0.85;;
25023;SDS011;13033;50.936;5.334;2022-08-06T11:18:58;4.00;;;0.77;;
25023;SDS011;13033;50.936;5.334;2022-08-06T11:21:37;1.92;;;0.60;;
25023;SDS011;13033;50.936;5.334;2022-08-06T11:24:07;1.88;;;0.50;;
25023;SDS011;13033;50.936;5.334;2022-08-06T11:26:38;3.10;;;0.70;;
25023;SDS011;13033;50.936;5.334;2022-08-06T11:29:06;1.88;;;0.50;;
25023;SDS011;13033;50.936;5.334;2022-08-06T11:34:07;2.03;;;0.60;;
25023;SDS011;13033;50.936;5.334;2022-08-06T11:39:27;2.05;;;0.75;;
25023;SDS011;13033;50.936;5.334;2022-08-06T11:44:25;2.00;;;0.60;;
25023;SDS011;13033;50.936;5.334;2022-08-06T11:49:38;5.20;;;0.50;;
25023;SDS011;13033;50.936;5.334;2022-08-06T11:52:05;1.27;;;0.43;;
25023;SDS011;13033;50.936;5.334;2022-08-06T11:59:36;1.70;;;0.52;;
25023;SDS011;13033;50.936;5.334;2022-08-06T12:02:05;2.25;;;0.60;;
25023;SDS011;13033;50.936;5.334;2022-08-06T12:07:13;2.58;;;0.73;;
25023;SDS011;13033;50.936;5.334;2022-08-06T12:09:39;2.17;;;0.45;;
25023;SDS011;13033;50.936;5.334;2022-08-06T12:12:30;1.85;;;0.50;;
25023;SDS011;13033;50.936;5.334;2022-08-06T12:14:58;1.05;;;0.77;;
25023;SDS011;13033;50.936;5.334;2022-08-06T12:17:26;2.22;;;0.70;;
25023;SDS011;13033;50.936;5.334;2022-08-06T12:19:54;2.42;;;0.73;;
25023;SDS011;13033;50.936;5.334;2022-08-06T12:22:22;2.13;;;0.50;;
25023;SDS011;13033;50.936;5.334;2022-08-06T12:24:50;2.17;;;0.68;;
25023;SDS011;13033;50.936;5.334;2022-08-06T12:27:19;2.60;;;0.70;;
25023;SDS011;13033;50.936;5.334;2022-08-06T12:29:46;1.67;;;0.50;;
25023;SDS011;13033;50.936;5.334;2022-08-06T12:35:08;1.45;;;0.40;;
25023;SDS011;13033;50.936;5.334;2022-08-06T12:37:36;2.95;;;0.60;;
25023;SDS011;13033;50.936;5.334;2022-08-06T12:40:06;2.17;;;0.60;;
25023;SDS011;13033;50.936;5.334;2022-08-06T12:42:53;1.83;;;0.73;;
25023;SDS011;13033;50.936;5.334;2022-08-06T12:45:20;2.78;;;0.80;;
25023;SDS011;13033;50.936;5.334;2022-08-06T12:50:28;2.20;;;0.80;;
25023;SDS011;13033;50.936;5.334;2022-08-06T12:55:46;2.35;;;0.73;;
25023;SDS011;13033;50.936;5.334;2022-08-06T12:58:15;2.08;;;0.60;;
25023;SDS011;13033;50.936;5.334;2022-08-06T13:00:45;2.67;;;0.55;;
25023;SDS011;13033;50.936;5.334;2022-08-06T13:03:13;1.98;;;0.73;;
25023;SDS011;13033;50.936;5.334;2022-08-06T13:05:40;4.30;;;0.70;;
25023;SDS011;13033;50.936;5.334;2022-08-06T13:08:07;2.25;;;0.60;;
25023;SDS011;13033;50.936;5.334;2022-08-06T13:10:33;3.85;;;0.50;;
25023;SDS011;13033;50.936;5.334;2022-08-06T13:13:00;2.92;;;0.90;;
25023;SDS011;13033;50.936;5.334;2022-08-06T13:15:28;2.78;;;0.70;;
25023;SDS011;13033;50.936;5.334;2022-08-06T13:18:05;2.88;;;0.50;;
25023;SDS011;13033;50.936;5.334;2022-08-06T13:20:43;2.88;;;0.60;;
25023;SDS011;13033;50.936;5.334;2022-08-06T13:23:11;1.08;;;0.50;;
25023;SDS011;13033;50.936;5.334;2022-08-06T13:25:45;2.33;;;0.60;;
25023;SDS011;13033;50.936;5.334;2022-08-06T13:28:19;2.17;;;0.60;;
25023;SDS011;13033;50.936;5.334;2022-08-06T13:30:47;3.13;;;0.68;;
25023;SDS011;13033;50.936;5.334;2022-08-06T13:33:13;1.40;;;0.60;;
25023;SDS011;13033;50.936;5.334;2022-08-06T13:35:48;2.38;;;0.70;;
25023;SDS011;13033;50.936;5.334;2022-08-06T13:38:28;1.83;;;0.60;;
25023;SDS011;13033;50.936;5.334;2022-08-06T13:40:54;3.55;;;0.70;;
25023;SDS011;13033;50.936;5.334;2022-08-06T13:43:21;1.88;;;0.55;;
25023;SDS011;13033;50.936;5.334;2022-08-06T13:48:53;1.73;;;0.77;;
25023;SDS011;13033;50.936;5.334;2022-08-06T13:51:23;1.63;;;0.60;;
25023;SDS011;13033;50.936;5.334;2022-08-06T13:53:50;3.00;;;0.70;;
25023;SDS011;13033;50.936;5.334;2022-08-06T13:56:16;1.90;;;0.50;;
25023;SDS011;13033;50.936;5.334;2022-08-06T13:58:42;2.45;;;0.80;;
25023;SDS011;13033;50.936;5.334;2022-08-06T14:01:12;2.05;;;0.63;;
25023;SDS011;13033;50.936;5.334;2022-08-06T14:03:38;2.22;;;0.80;;
25023;SDS011;13033;50.936;5.334;2022-08-06T14:06:04;4.13;;;0.85;;
25023;SDS011;13033;50.936;5.334;2022-08-06T14:08:35;3.50;;;1.00;;
25023;SDS011;13033;50.936;5.334;2022-08-06T14:11:01;3.47;;;0.75;;
25023;SDS011;13033;50.936;5.334;2022-08-06T14:13:27;2.63;;;1.00;;
25023;SDS011;13033;50.936;5.334;2022-08-06T14:15:54;2.60;;;0.77;;
25023;SDS011;13033;50.936;5.334;2022-08-06T14:18:20;2.20;;;0.73;;
25023;SDS011;13033;50.936;5.334;2022-08-06T14:20:47;2.13;;;0.60;;
25023;SDS011;13033;50.936;5.334;2022-08-06T14:23:13;2.28;;;0.57;;
25023;SDS011;13033;50.936;5.334;2022-08-06T14:25:39;2.13;;;0.80;;
25023;SDS011;13033;50.936;5.334;2022-08-06T14:28:06;1.58;;;0.80;;
25023;SDS011;13033;50.936;5.334;2022-08-06T14:30:32;1.23;;;0.70;;
25023;SDS011;13033;50.936;5.334;2022-08-06T14:33:01;1.95;;;0.57;;
25023;SDS011;13033;50.936;5.334;2022-08-06T14:35:28;1.73;;;0.88;;
25023;SDS011;13033;50.936;5.334;2022-08-06T14:37:54;2.75;;;0.85;;
25023;SDS011;13033;50.936;5.334;2022-08-06T14:40:20;3.03;;;1.00;;
25023;SDS011;13033;50.936;5.334;2022-08-06T14:43:04;2.38;;;0.70;;
25023;SDS011;13033;50.936;5.334;2022-08-06T14:45:49;2.00;;;0.90;;
25023;SDS011;13033;50.936;5.334;2022-08-06T14:48:14;2.08;;;0.70;;
25023;SDS011;13033;50.936;5.334;2022-08-06T14:50:40;3.92;;;0.90;;
25023;SDS011;13033;50.936;5.334;2022-08-06T14:53:05;2.35;;;0.70;;
25023;SDS011;13033;50.936;5.334;2022-08-06T14:55:31;1.88;;;0.90;;
25023;SDS011;13033;50.936;5.334;2022-08-06T14:57:57;3.25;;;1.00;;
25023;SDS011;13033;50.936;5.334;2022-08-06T15:00:22;3.90;;;0.93;;
25023;SDS011;13033;50.936;5.334;2022-08-06T15:02:48;2.75;;;0.90;;
25023;SDS011;13033;50.936;5.334;2022-08-06T15:05:16;2.00;;;0.63;;
25023;SDS011;13033;50.936;5.334;2022-08-06T15:07:42;3.22;;;1.08;;
25023;SDS011;13033;50.936;5.334;2022-08-06T15:10:08;2.35;;;0.95;;
25023;SDS011;13033;50.936;5.334;2022-08-06T15:12:35;1.35;;;0.80;;
25023;SDS011;13033;50.936;5.334;2022-08-06T15:15:01;1.52;;;0.88;;
25023;SDS011;13033;50.936;5.334;2022-08-06T15:17:30;2.15;;;0.77;;
25023;SDS011;13033;50.936;5.334;2022-08-06T15:19:56;2.75;;;1.00;;
25023;SDS011;13033;50.936;5.334;2022-08-06T15:22:22;3.88;;;0.80;;
25023;SDS011;13033;50.936;5.334;2022-08-06T15:24:48;3.15;;;0.90;;
25023;SDS011;13033;50.936;5.334;2022-08-06T15:27:13;1.75;;;0.70;;
25023;SDS011;13033;50.936;5.334;2022-08-06T15:29:44;2.70;;;0.82;;
25023;SDS011;13033;50.936;5.334;2022-08-06T15:32:13;1.15;;;0.70;;
25023;SDS011;13033;50.936;5.334;2022-08-06T15:34:40;2.50;;;0.90;;
25023;SDS011;13033;50.936;5.334;2022-08-06T15:37:06;3.53;;;0.90;;
25023;SDS011;13033;50.936;5.334;2022-08-06T15:39:33;2.78;;;0.75;;
25023;SDS011;13033;50.936;5.334;2022-08-06T15:42:00;2.38;;;1.25;;
25023;SDS011;13033;50.936;5.334;2022-08-06T15:44:25;3.60;;;0.93;;
25023;SDS011;13033;50.936;5.334;2022-08-06T15:46:51;1.20;;;0.80;;
25023;SDS011;13033;50.936;5.334;2022-08-06T15:49:17;1.92;;;0.88;;
25023;SDS011;13033;50.936;5.334;2022-08-06T15:51:43;3.50;;;0.90;;
25023;SDS011;13033;50.936;5.334;2022-08-06T15:54:09;1.98;;;0.85;;
25023;SDS011;13033;50.936;5.334;2022-08-06T15:56:35;2.47;;;1.10;;
25023;SDS011;13033;50.936;5.334;2022-08-06T15:59:01;2.92;;;1.08;;
25023;SDS011;13033;50.936;5.334;2022-08-06T16:01:26;2.67;;;0.85;;
25023;SDS011;13033;50.936;5.334;2022-08-06T16:03:52;3.22;;;1.30;;
25023;SDS011;13033;50.936;5.334;2022-08-06T16:06:18;1.98;;;0.70;;
25023;SDS011;13033;50.936;5.334;2022-08-06T16:08:43;1.73;;;0.90;;